Time;durP1;ratioP1;P1;durP2;ratioP2;P2;SDS_P1;SDS_P2;PMS_P1;PMS_P2;Temp;Humidity;BMP_temperature;BMP_pressure;BME280_temperature;BME280_humidity;BME280_pressure;Samples;Min_cycle;Max_cycle;Signal;HPM_P1;HPM_P2
2022/10/14 00:01:49;;;;;;;0.00;0.00;;;;;;;;;;4958145;28;20053;-92
2022/10/14 00:04:14;;;;;;;0.00;0.00;;;;;;;;;;4957609;28;20123;-93
2022/10/14 00:06:40;;;;;;;0.00;0.00;;;;;;;;;;4957837;28;20067;-92
2022/10/14 00:09:08;;;;;;;0.00;0.00;;;;;;;;;;4957652;28;20046;-90
2022/10/14 00:11:35;;;;;;;0.00;0.00;;;;;;;;;;4957645;28;20199;-89
2022/10/14 00:14:03;;;;;;;0.00;0.00;;;;;;;;;;4957829;28;20046;-91
2022/10/14 00:16:33;;;;;;;0.00;0.00;;;;;;;;;;4957782;28;20424;-90
2022/10/14 00:19:00;;;;;;;0.00;0.00;;;;;;;;;;4957461;28;20047;-88
2022/10/14 00:21:26;;;;;;;0.00;0.00;;;;;;;;;;4959541;28;20042;-90
2022/10/14 00:23:52;;;;;;;0.00;0.00;;;;;;;;;;4961291;28;20126;-84
2022/10/14 00:26:20;;;;;;;0.00;0.00;;;;;;;;;;4961816;28;20078;-86
2022/10/14 00:28:46;;;;;;;0.00;0.00;;;;;;;;;;4961755;28;20034;-90
2022/10/14 00:31:12;;;;;;;0.00;0.00;;;;;;;;;;4961480;28;20042;-91
2022/10/14 00:33:38;;;;;;;0.00;0.00;;;;;;;;;;4961245;28;20047;-90
2022/10/14 00:36:07;;;;;;;0.00;0.00;;;;;;;;;;4961059;28;20039;-90
2022/10/14 00:38:34;;;;;;;0.00;0.00;;;;;;;;;;4961309;28;20045;-90
2022/10/14 00:41:00;;;;;;;0.00;0.00;;;;;;;;;;4961485;28;20053;-89
2022/10/14 00:43:27;;;;;;;0.00;0.00;;;;;;;;;;4960959;28;20038;-84
2022/10/14 00:45:53;;;;;;;0.00;0.00;;;;;;;;;;4960854;28;20403;-90
2022/10/14 00:48:20;;;;;;;0.00;0.00;;;;;;;;;;4960829;28;20039;-89
2022/10/14 00:50:47;;;;;;;0.00;0.00;;;;;;;;;;4960891;28;20050;-89
2022/10/14 00:53:13;;;;;;;0.00;0.00;;;;;;;;;;4944874;28;20046;-91
2022/10/14 00:55:41;;;;;;;0.00;0.00;;;;;;;;;;4944987;28;20112;-89
2022/10/14 00:58:07;;;;;;;0.00;0.00;;;;;;;;;;4944861;28;20093;-92
2022/10/14 01:00:33;;;;;;;0.00;0.00;;;;;;;;;;4944937;28;20046;-92
2022/10/14 01:02:59;;;;;;;0.00;0.00;;;;;;;;;;4945282;28;20047;-91
2022/10/14 01:05:29;;;;;;;0.00;0.00;;;;;;;;;;4960912;28;20046;-89
2022/10/14 01:07:55;;;;;;;0.00;0.00;;;;;;;;;;4960602;28;20039;-92
2022/10/14 01:10:24;;;;;;;0.00;0.00;;;;;;;;;;4960550;28;20399;-93
2022/10/14 01:12:53;;;;;;;0.00;0.00;;;;;;;;;;4944900;28;20209;-91
2022/10/14 01:15:28;;;;;;;0.00;0.00;;;;;;;;;;4960780;28;20058;-92
2022/10/14 01:18:00;;;;;;;0.00;0.00;;;;;;;;;;4945258;28;20489;-94
2022/10/14 01:20:41;;;;;;;0.08;0.08;;;;;;;;;;4960788;28;20057;-94
2022/10/14 01:23:17;;;;;;;0.00;0.00;;;;;;;;;;4944762;28;20049;-90
2022/10/14 01:26:02;;;;;;;0.00;0.00;;;;;;;;;;4944621;28;20093;-93
2022/10/14 01:28:28;;;;;;;0.00;0.00;;;;;;;;;;4960220;28;20046;-87
2022/10/14 01:31:01;;;;;;;0.00;0.00;;;;;;;;;;4960419;28;20402;-89
2022/10/14 01:33:30;;;;;;;0.00;0.00;;;;;;;;;;4959928;28;20054;-91
2022/10/14 01:36:15;;;;;;;0.00;0.00;;;;;;;;;;4960186;28;20130;-91
2022/10/14 01:38:44;;;;;;;0.00;0.00;;;;;;;;;;4960134;28;20084;-91
2022/10/14 01:41:24;;;;;;;0.00;0.00;;;;;;;;;;4944400;28;20057;-91
2022/10/14 01:43:52;;;;;;;0.00;0.00;;;;;;;;;;4943958;28;20042;-89
2022/10/14 01:46:20;;;;;;;0.00;0.00;;;;;;;;;;4959946;28;20038;-92
2022/10/14 01:48:48;;;;;;;0.00;0.00;;;;;;;;;;4959982;28;20039;-92
2022/10/14 01:51:17;;;;;;;0.00;0.00;;;;;;;;;;4959862;28;20394;-91
2022/10/14 01:53:48;;;;;;;0.00;0.00;;;;;;;;;;4959531;28;20058;-92
2022/10/14 01:56:14;;;;;;;0.00;0.00;;;;;;;;;;4959849;28;20483;-91
2022/10/14 01:58:41;;;;;;;0.00;0.00;;;;;;;;;;4959819;28;20047;-89
2022/10/14 02:01:11;;;;;;;0.00;0.00;;;;;;;;;;4959755;28;20042;-91
2022/10/14 02:03:38;;;;;;;0.00;0.00;;;;;;;;;;4959472;28;20081;-88
2022/10/14 02:06:06;;;;;;;0.00;0.00;;;;;;;;;;4959971;28;20038;-90
2022/10/14 02:08:50;;;;;;;0.00;0.00;;;;;;;;;;4943726;28;20224;-92
2022/10/14 02:11:17;;;;;;;0.00;0.00;;;;;;;;;;4943555;28;20046;-90
2022/10/14 02:13:46;;;;;;;0.00;0.00;;;;;;;;;;4959161;28;20077;-85
2022/10/14 02:16:18;;;;;;;0.00;0.00;;;;;;;;;;4959449;28;20043;-91
2022/10/14 02:18:58;;;;;;;0.00;0.00;;;;;;;;;;4959639;28;20133;-90
2022/10/14 02:21:26;;;;;;;0.00;0.00;;;;;;;;;;4959661;28;20039;-92
2022/10/14 02:23:55;;;;;;;0.00;0.00;;;;;;;;;;4959154;28;20609;-90
2022/10/14 02:26:22;;;;;;;0.10;0.10;;;;;;;;;;4943733;28;20427;-91
2022/10/14 02:28:48;;;;;;;0.00;0.00;;;;;;;;;;4959403;28;20407;-92
2022/10/14 02:31:16;;;;;;;0.00;0.00;;;;;;;;;;4959237;28;20104;-89
2022/10/14 02:33:43;;;;;;;0.00;0.00;;;;;;;;;;4959408;28;20499;-91
2022/10/14 02:36:11;;;;;;;0.00;0.00;;;;;;;;;;4959314;28;20053;-92
2022/10/14 02:38:37;;;;;;;0.00;0.00;;;;;;;;;;4943428;28;20073;-91
2022/10/14 02:41:05;;;;;;;0.00;0.00;;;;;;;;;;4943065;28;20071;-90
2022/10/14 02:43:31;;;;;;;0.00;0.00;;;;;;;;;;4942203;28;20406;-89
2022/10/14 02:45:58;;;;;;;0.00;0.00;;;;;;;;;;4959024;28;20455;-91
2022/10/14 02:48:24;;;;;;;0.00;0.00;;;;;;;;;;4943011;28;20074;-90
2022/10/14 02:50:50;;;;;;;0.00;0.00;;;;;;;;;;4955322;29;20058;-90
2022/10/14 02:53:16;;;;;;;0.00;0.00;;;;;;;;;;4939577;29;20046;-93
2022/10/14 02:55:42;;;;;;;0.00;0.00;;;;;;;;;;4955570;28;20082;-91
2022/10/14 02:58:11;;;;;;;0.00;0.00;;;;;;;;;;4955545;29;20156;-91
2022/10/14 03:00:37;;;;;;;0.00;0.00;;;;;;;;;;4955408;29;20533;-91
2022/10/14 03:03:03;;;;;;;0.00;0.00;;;;;;;;;;4939797;29;20040;-93
2022/10/14 03:05:29;;;;;;;0.00;0.00;;;;;;;;;;4939392;29;20047;-91
2022/10/14 03:07:55;;;;;;;0.00;0.00;;;;;;;;;;4955377;29;20043;-92
2022/10/14 03:10:21;;;;;;;0.00;0.00;;;;;;;;;;4955272;28;20042;-92
2022/10/14 03:12:47;;;;;;;0.00;0.00;;;;;;;;;;4955544;28;20066;-92
2022/10/14 03:15:13;;;;;;;0.00;0.00;;;;;;;;;;4955362;28;20191;-91
2022/10/14 03:17:42;;;;;;;0.00;0.00;;;;;;;;;;4955411;29;20051;-92
2022/10/14 03:20:08;;;;;;;0.00;0.00;;;;;;;;;;4955400;29;20109;-91
2022/10/14 03:22:34;;;;;;;0.00;0.00;;;;;;;;;;4955418;28;20044;-92
2022/10/14 03:25:00;;;;;;;0.00;0.00;;;;;;;;;;4955066;28;20051;-91
2022/10/14 03:27:26;;;;;;;0.00;0.00;;;;;;;;;;4955156;29;20494;-91
2022/10/14 03:29:52;;;;;;;0.00;0.00;;;;;;;;;;4955231;29;20106;-91
2022/10/14 03:32:18;;;;;;;0.00;0.00;;;;;;;;;;4955264;29;20042;-91
2022/10/14 03:34:44;;;;;;;0.00;0.00;;;;;;;;;;4954751;28;20490;-93
2022/10/14 03:37:13;;;;;;;0.00;0.00;;;;;;;;;;4954907;29;20055;-92
2022/10/14 03:39:39;;;;;;;0.00;0.00;;;;;;;;;;4955422;29;20129;-91
2022/10/14 03:42:05;;;;;;;0.00;0.00;;;;;;;;;;4955208;28;20518;-92
2022/10/14 03:44:31;;;;;;;0.00;0.00;;;;;;;;;;4954762;28;20057;-93
2022/10/14 03:46:57;;;;;;;0.00;0.00;;;;;;;;;;4955229;29;20043;-93
2022/10/14 03:49:23;;;;;;;0.00;0.00;;;;;;;;;;4954809;29;20050;-91
2022/10/14 03:51:49;;;;;;;0.00;0.00;;;;;;;;;;4963772;28;20055;-92
2022/10/14 03:54:15;;;;;;;0.00;0.00;;;;;;;;;;4986831;28;20266;-92
2022/10/14 03:56:41;;;;;;;0.00;0.00;;;;;;;;;;4986852;28;20042;-92
2022/10/14 03:59:07;;;;;;;0.00;0.00;;;;;;;;;;4987258;28;20106;-91
2022/10/14 04:01:33;;;;;;;0.00;0.00;;;;;;;;;;4986827;28;20039;-91
2022/10/14 04:03:59;;;;;;;0.00;0.00;;;;;;;;;;4970424;28;20047;-92
2022/10/14 04:06:25;;;;;;;0.00;0.00;;;;;;;;;;4970536;28;20079;-92
2022/10/14 04:08:51;;;;;;;0.00;0.00;;;;;;;;;;4986956;28;20518;-91
2022/10/14 04:11:17;;;;;;;0.00;0.00;;;;;;;;;;4970670;28;20131;-91
2022/10/14 04:13:44;;;;;;;0.00;0.00;;;;;;;;;;4986607;28;20063;-92
2022/10/14 04:16:13;;;;;;;0.00;0.00;;;;;;;;;;4970646;28;20094;-91
2022/10/14 04:18:39;;;;;;;0.00;0.00;;;;;;;;;;4987470;28;20069;-93
2022/10/14 04:21:11;;;;;;;0.00;0.00;;;;;;;;;;4970011;28;20047;-93
2022/10/14 04:23:37;;;;;;;0.00;0.00;;;;;;;;;;4970596;28;20415;-92
2022/10/14 04:26:04;;;;;;;0.00;0.00;;;;;;;;;;4970540;28;20039;-89
2022/10/14 04:28:30;;;;;;;0.00;0.00;;;;;;;;;;4986650;28;20491;-91
2022/10/14 04:30:57;;;;;;;0.00;0.00;;;;;;;;;;4970532;28;20035;-91
2022/10/14 04:33:23;;;;;;;0.00;0.00;;;;;;;;;;4986539;28;20078;-91
2022/10/14 04:35:49;;;;;;;0.00;0.00;;;;;;;;;;4986704;28;20138;-92
2022/10/14 04:38:15;;;;;;;0.00;0.00;;;;;;;;;;4986467;28;20079;-91
2022/10/14 04:40:43;;;;;;;0.00;0.00;;;;;;;;;;4986398;28;20047;-94
2022/10/14 04:43:09;;;;;;;0.00;0.00;;;;;;;;;;4986772;28;20043;-93
2022/10/14 04:45:35;;;;;;;0.00;0.00;;;;;;;;;;4986346;28;20055;-91
2022/10/14 04:48:01;;;;;;;0.00;0.00;;;;;;;;;;4986456;28;20050;-90
2022/10/14 04:50:27;;;;;;;0.00;0.00;;;;;;;;;;4987387;28;20122;-92
2022/10/14 04:52:53;;;;;;;0.00;0.00;;;;;;;;;;4973622;28;20057;-92
2022/10/14 04:55:19;;;;;;;0.00;0.00;;;;;;;;;;4957489;28;20041;-93
2022/10/14 04:57:45;;;;;;;0.00;0.00;;;;;;;;;;4973785;28;20097;-91
2022/10/14 05:00:14;;;;;;;0.00;0.00;;;;;;;;;;4960852;28;20082;-90
2022/10/14 05:02:40;;;;;;;0.00;0.00;;;;;;;;;;4957615;28;20094;-90
2022/10/14 05:05:06;;;;;;;0.00;0.00;;;;;;;;;;4973280;28;20122;-90
2022/10/14 05:07:33;;;;;;;0.00;0.00;;;;;;;;;;4959021;28;20039;-92
2022/10/14 05:10:00;;;;;;;0.00;0.00;;;;;;;;;;4960671;28;20074;-91
2022/10/14 05:12:26;;;;;;;0.00;0.00;;;;;;;;;;4960642;28;20166;-92
2022/10/14 05:14:53;;;;;;;0.00;0.00;;;;;;;;;;4976977;28;20082;-91
2022/10/14 05:17:19;;;;;;;0.00;0.00;;;;;;;;;;4976619;28;20039;-93
2022/10/14 05:19:45;;;;;;;0.00;0.00;;;;;;;;;;4976832;28;20035;-90
2022/10/14 05:22:12;;;;;;;0.00;0.00;;;;;;;;;;4960230;28;20039;-91
2022/10/14 05:24:38;;;;;;;0.00;0.00;;;;;;;;;;4960418;28;20074;-90
2022/10/14 05:27:04;;;;;;;0.00;0.00;;;;;;;;;;4960180;28;20035;-90
2022/10/14 05:29:30;;;;;;;0.00;0.00;;;;;;;;;;4976234;28;20039;-91
2022/10/14 05:31:56;;;;;;;0.00;0.00;;;;;;;;;;4960490;28;20125;-92
2022/10/14 05:34:22;;;;;;;0.00;0.00;;;;;;;;;;4976190;28;20065;-91
2022/10/14 05:36:47;;;;;;;0.00;0.00;;;;;;;;;;4960051;28;20438;-90
2022/10/14 05:39:13;;;;;;;0.00;0.00;;;;;;;;;;4976483;28;20042;-89
2022/10/14 05:41:39;;;;;;;0.00;0.00;;;;;;;;;;4959928;28;20077;-91
2022/10/14 05:44:05;;;;;;;0.00;0.00;;;;;;;;;;4959915;28;20406;-91
2022/10/14 05:46:31;;;;;;;0.00;0.00;;;;;;;;;;4975988;28;20050;-90
2022/10/14 05:48:59;;;;;;;0.00;0.00;;;;;;;;;;4976648;28;20038;-91
2022/10/14 05:51:25;;;;;;;0.00;0.00;;;;;;;;;;4975809;28;20061;-92
2022/10/14 05:53:51;;;;;;;0.00;0.00;;;;;;;;;;4959915;28;20050;-91
2022/10/14 05:56:17;;;;;;;0.00;0.00;;;;;;;;;;4960028;28;20173;-91
2022/10/14 05:58:43;;;;;;;0.00;0.00;;;;;;;;;;4976199;28;20050;-91
2022/10/14 06:01:10;;;;;;;0.00;0.00;;;;;;;;;;4976299;28;20042;-88
2022/10/14 06:03:36;;;;;;;0.00;0.00;;;;;;;;;;4959592;28;20622;-92
2022/10/14 06:06:02;;;;;;;0.00;0.00;;;;;;;;;;4975493;28;20064;-92
2022/10/14 06:08:28;;;;;;;0.00;0.00;;;;;;;;;;4960112;28;20050;-91
2022/10/14 06:10:54;;;;;;;0.00;0.00;;;;;;;;;;4976047;28;20146;-91
2022/10/14 06:13:21;;;;;;;0.00;0.00;;;;;;;;;;4975907;28;20049;-90
2022/10/14 06:15:47;;;;;;;0.00;0.00;;;;;;;;;;4959694;28;20074;-91
2022/10/14 06:18:13;;;;;;;0.00;0.00;;;;;;;;;;4958590;28;20039;-91
2022/10/14 06:20:42;;;;;;;0.00;0.00;;;;;;;;;;4976017;28;20042;-91
2022/10/14 06:23:08;;;;;;;0.00;0.00;;;;;;;;;;4959342;28;20054;-94
2022/10/14 06:25:35;;;;;;;0.00;0.00;;;;;;;;;;4960025;28;20045;-94
2022/10/14 06:28:02;;;;;;;0.00;0.00;;;;;;;;;;4952275;28;20069;-92
2022/10/14 06:30:28;;;;;;;0.00;0.00;;;;;;;;;;4942212;28;20041;-90
2022/10/14 06:32:54;;;;;;;0.00;0.00;;;;;;;;;;4959259;28;20039;-93
2022/10/14 06:35:20;;;;;;;0.00;0.00;;;;;;;;;;4959577;28;20054;-93
2022/10/14 06:37:46;;;;;;;0.00;0.00;;;;;;;;;;4960177;28;20408;-94
2022/10/14 06:40:12;;;;;;;0.00;0.00;;;;;;;;;;4959535;28;20088;-90
2022/10/14 06:42:38;;;;;;;0.00;0.00;;;;;;;;;;4959330;28;20082;-93
2022/10/14 06:45:05;;;;;;;0.10;0.05;;;;;;;;;;4959415;28;20467;-91
2022/10/14 06:47:31;;;;;;;0.00;0.00;;;;;;;;;;4958948;28;20042;-94
2022/10/14 06:49:57;;;;;;;0.00;0.00;;;;;;;;;;4959322;28;20129;-94
2022/10/14 06:52:23;;;;;;;0.00;0.00;;;;;;;;;;4958698;28;20062;-94
2022/10/14 06:54:49;;;;;;;0.00;0.00;;;;;;;;;;4959301;28;20367;-94
2022/10/14 06:57:15;;;;;;;0.00;0.00;;;;;;;;;;4960902;28;20190;-84
2022/10/14 06:59:41;;;;;;;0.00;0.00;;;;;;;;;;4966225;28;20039;-93
2022/10/14 07:02:08;;;;;;;0.00;0.00;;;;;;;;;;4966266;28;20134;-92
2022/10/14 07:04:34;;;;;;;0.00;0.00;;;;;;;;;;4966239;28;20102;-94
2022/10/14 07:07:01;;;;;;;0.00;0.00;;;;;;;;;;4962202;28;20062;-92
2022/10/14 07:09:27;;;;;;;0.00;0.00;;;;;;;;;;4974877;28;20046;-89
2022/10/14 07:11:53;;;;;;;0.00;0.00;;;;;;;;;;4960826;28;20039;-91
2022/10/14 07:14:20;;;;;;;0.28;0.00;;;;;;;;;;4963630;28;20174;-92
2022/10/14 07:16:46;;;;;;;0.00;0.00;;;;;;;;;;4960546;28;20053;-83
2022/10/14 07:19:12;;;;;;;0.00;0.00;;;;;;;;;;4958332;28;20042;-91
2022/10/14 07:21:38;;;;;;;0.00;0.00;;;;;;;;;;4958511;28;20046;-94
2022/10/14 07:24:05;;;;;;;0.00;0.00;;;;;;;;;;4958427;28;20046;-91
2022/10/14 07:26:31;;;;;;;0.00;0.00;;;;;;;;;;4958887;28;20046;-93
2022/10/14 07:28:57;;;;;;;0.00;0.00;;;;;;;;;;4958692;28;20067;-93
2022/10/14 07:31:23;;;;;;;0.00;0.00;;;;;;;;;;4958225;28;20097;-94
2022/10/14 07:33:49;;;;;;;0.00;0.00;;;;;;;;;;4958218;28;20042;-90
2022/10/14 07:36:16;;;;;;;0.00;0.00;;;;;;;;;;4958885;28;20047;-92
2022/10/14 07:38:42;;;;;;;0.00;0.00;;;;;;;;;;4958674;28;20101;-92
2022/10/14 07:41:15;;;;;;;0.00;0.00;;;;;;;;;;4958048;28;20483;-89
2022/10/14 07:43:52;;;;;;;0.30;0.20;;;;;;;;;;4957856;28;20061;-90
2022/10/14 07:46:28;;;;;;;0.38;0.00;;;;;;;;;;4957806;28;20043;-91
2022/10/14 07:48:54;;;;;;;0.00;0.00;;;;;;;;;;4964780;28;20075;-90
2022/10/14 07:51:20;;;;;;;0.00;0.00;;;;;;;;;;4972886;28;20054;-91
2022/10/14 07:56:29;;;;;;;0.00;0.00;;;;;;;;;;5857665;23;20566;-93
2022/10/14 07:58:55;;;;;;;0.03;0.00;;;;;;;;;;5007095;28;20129;-92
2022/10/14 08:01:23;;;;;;;0.00;0.00;;;;;;;;;;5006576;28;20045;-90
2022/10/14 08:06:25;;;;;;;0.00;0.00;;;;;;;;;;5008670;23;20139;-91
2022/10/14 08:09:00;;;;;;;0.00;0.00;;;;;;;;;;5090532;23;20138;-88
2022/10/14 08:14:43;;;;;;;0.00;0.00;;;;;;;;;;4956588;28;20051;-94
2022/10/14 08:30:15;;;;;;;0.00;0.00;;;;;;;;;;5013457;28;20054;-90
2022/10/14 08:32:41;;;;;;;0.00;0.00;;;;;;;;;;4979967;28;20401;-84
2022/10/14 08:38:41;;;;;;;0.03;0.03;;;;;;;;;;4975656;28;20129;-92
2022/10/14 08:41:16;;;;;;;0.00;0.00;;;;;;;;;;4977407;28;20038;-91
2022/10/14 08:43:48;;;;;;;0.00;0.00;;;;;;;;;;4981725;28;20065;-94
2022/10/14 08:46:20;;;;;;;0.00;0.00;;;;;;;;;;4981569;28;20437;-92
2022/10/14 08:48:47;;;;;;;0.00;0.00;;;;;;;;;;4981608;28;20061;-93
2022/10/14 08:57:51;;;;;;;0.00;0.00;;;;;;;;;;5119676;23;20062;-87
2022/10/14 09:09:20;;;;;;;0.00;0.00;;;;;;;;;;5122248;23;20081;-94
2022/10/14 09:18:05;;;;;;;0.00;0.00;;;;;;;;;;5110826;23;20065;-88
2022/10/14 09:23:51;;;;;;;;;;;;;;;;;;;;;
2022/10/14 09:48:51;;;;;;;0.00;0.00;;;;;;;;;;5261482;23;20137;-87
2022/10/14 09:51:20;;;;;;;0.00;0.00;;;;;;;;;;4979699;28;20050;-92
2022/10/14 09:53:48;;;;;;;0.00;0.00;;;;;;;;;;4979086;28;20174;-92
2022/10/14 09:56:15;;;;;;;0.00;0.00;;;;;;;;;;4979750;28;20101;-89
2022/10/14 09:58:52;;;;;;;0.00;0.00;;;;;;;;;;4979241;28;20509;-87
2022/10/14 10:01:22;;;;;;;0.00;0.00;;;;;;;;;;4963033;28;20069;-89
2022/10/14 10:03:49;;;;;;;0.00;0.00;;;;;;;;;;4978755;28;20125;-90
2022/10/14 10:06:20;;;;;;;0.00;0.00;;;;;;;;;;4962970;28;20045;-90
2022/10/14 10:08:52;;;;;;;0.00;0.00;;;;;;;;;;4962785;28;20074;-86
2022/10/14 10:11:38;;;;;;;0.00;0.00;;;;;;;;;;4978506;28;20034;-85
2022/10/14 10:14:18;;;;;;;0.30;0.30;;;;;;;;;;4978273;28;20379;-89
2022/10/14 10:16:44;;;;;;;0.00;0.00;;;;;;;;;;4978222;28;20050;-89
2022/10/14 10:19:20;;;;;;;0.00;0.00;;;;;;;;;;4978278;28;20064;-90
2022/10/14 10:21:46;;;;;;;0.00;0.00;;;;;;;;;;4962208;28;20046;-91
2022/10/14 10:24:20;;;;;;;0.00;0.00;;;;;;;;;;4977886;28;20050;-86
2022/10/14 10:26:46;;;;;;;0.00;0.00;;;;;;;;;;4978336;28;20049;-90
2022/10/14 10:29:24;;;;;;;0.00;0.00;;;;;;;;;;4962278;28;20085;-88
2022/10/14 10:32:05;;;;;;;0.05;0.00;;;;;;;;;;4978911;28;20046;-88
2022/10/14 10:34:41;;;;;;;0.08;0.03;;;;;;;;;;4943609;28;20046;-88
2022/10/14 10:37:18;;;;;;;0.00;0.00;;;;;;;;;;4958660;28;20466;-90
2022/10/14 10:39:44;;;;;;;0.00;0.00;;;;;;;;;;4958494;28;20076;-89
2022/10/14 10:42:38;;;;;;;0.10;0.10;;;;;;;;;;4958422;28;20560;-88
2022/10/14 10:45:19;;;;;;;0.00;0.00;;;;;;;;;;4930682;28;20054;-87
2022/10/14 10:48:00;;;;;;;0.10;0.03;;;;;;;;;;4954804;28;20065;-88
2022/10/14 10:50:43;;;;;;;0.00;0.00;;;;;;;;;;4936608;29;20047;-89
2022/10/14 10:53:35;;;;;;;0.00;0.00;;;;;;;;;;4939473;29;20045;-90
2022/10/14 10:56:07;;;;;;;0.00;0.00;;;;;;;;;;4911134;29;20054;-89
2022/10/14 10:58:48;;;;;;;0.00;0.00;;;;;;;;;;4939798;29;20053;-91
2022/10/14 11:01:20;;;;;;;0.00;0.00;;;;;;;;;;4955609;29;20108;-90
2022/10/14 11:03:52;;;;;;;0.00;0.00;;;;;;;;;;4939465;28;20431;-91
2022/10/14 11:12:24;;;;;;;0.00;0.00;;;;;;;;;;4955371;29;20126;-91
2022/10/14 11:15:08;;;;;;;0.00;0.00;;;;;;;;;;4954993;28;20047;-91
2022/10/14 11:17:49;;;;;;;0.00;0.00;;;;;;;;;;4939357;29;20131;-92
2022/10/14 11:20:35;;;;;;;0.00;0.00;;;;;;;;;;4938070;29;20051;-89
2022/10/14 11:23:08;;;;;;;0.00;0.00;;;;;;;;;;4937708;29;20057;-90
2022/10/14 11:25:48;;;;;;;0.30;0.00;;;;;;;;;;4954527;28;20035;-89
2022/10/14 11:28:35;;;;;;;0.00;0.00;;;;;;;;;;4954481;29;20047;-89
2022/10/14 11:31:07;;;;;;;0.00;0.00;;;;;;;;;;4938071;29;20039;-89
2022/10/14 11:33:41;;;;;;;0.00;0.00;;;;;;;;;;4954635;28;20126;-89
2022/10/14 11:36:10;;;;;;;0.17;0.08;;;;;;;;;;4954179;29;20051;-89
2022/10/14 11:38:40;;;;;;;0.00;0.00;;;;;;;;;;4938607;29;20098;-88
2022/10/14 11:41:19;;;;;;;0.00;0.00;;;;;;;;;;4953989;29;20043;-88
2022/10/14 11:44:04;;;;;;;0.00;0.00;;;;;;;;;;4937864;28;20400;-88
2022/10/14 11:46:34;;;;;;;0.00;0.00;;;;;;;;;;4953751;29;20042;-88
2022/10/14 11:49:00;;;;;;;0.00;0.00;;;;;;;;;;4953907;29;20531;-90
2022/10/14 11:51:40;;;;;;;0.00;0.00;;;;;;;;;;4953951;29;20054;-85
2022/10/14 11:54:14;;;;;;;0.00;0.00;;;;;;;;;;4953753;28;20159;-85
2022/10/14 11:56:56;;;;;;;0.00;0.00;;;;;;;;;;4953752;29;20098;-86
2022/10/14 11:59:42;;;;;;;0.00;0.00;;;;;;;;;;4937488;29;20562;-85
2022/10/14 12:02:17;;;;;;;0.00;0.00;;;;;;;;;;4953784;29;20497;-86
2022/10/14 12:04:46;;;;;;;0.00;0.00;;;;;;;;;;4953284;28;20390;-87
2022/10/14 12:07:17;;;;;;;0.30;0.10;;;;;;;;;;4953485;29;20078;-85
2022/10/14 12:09:48;;;;;;;0.00;0.00;;;;;;;;;;4953220;29;20098;-85
2022/10/14 12:12:16;;;;;;;0.00;0.00;;;;;;;;;;4953438;29;20042;-85
2022/10/14 12:14:54;;;;;;;0.00;0.00;;;;;;;;;;4936949;29;20122;-85
2022/10/14 12:17:23;;;;;;;0.00;0.00;;;;;;;;;;4957183;28;20487;-85
2022/10/14 12:19:50;;;;;;;0.00;0.00;;;;;;;;;;4956950;29;20090;-85
2022/10/14 12:22:19;;;;;;;0.00;0.00;;;;;;;;;;4941651;29;20043;-85
2022/10/14 12:24:48;;;;;;;0.00;0.00;;;;;;;;;;4940775;29;20097;-86
2022/10/14 12:27:14;;;;;;;0.00;0.00;;;;;;;;;;4957411;29;20043;-86
2022/10/14 12:29:42;;;;;;;0.00;0.00;;;;;;;;;;4956924;29;20557;-85
2022/10/14 12:32:20;;;;;;;0.00;0.00;;;;;;;;;;4957430;29;20035;-85
2022/10/14 12:35:09;;;;;;;1.85;0.22;;;;;;;;;;4957030;28;20093;-85
2022/10/14 12:37:36;;;;;;;0.00;0.00;;;;;;;;;;4954979;29;20081;-86
2022/10/14 12:40:04;;;;;;;0.00;0.00;;;;;;;;;;4956874;29;20051;-85
2022/10/14 12:42:31;;;;;;;0.00;0.00;;;;;;;;;;4956785;29;20061;-84
2022/10/14 12:45:00;;;;;;;0.00;0.00;;;;;;;;;;4956598;28;20050;-85
2022/10/14 12:47:30;;;;;;;0.00;0.00;;;;;;;;;;4956716;28;20070;-85
2022/10/14 12:49:58;;;;;;;0.00;0.00;;;;;;;;;;4940630;29;20035;-85
2022/10/14 12:52:26;;;;;;;0.00;0.00;;;;;;;;;;4957053;29;20043;-86
2022/10/14 12:54:52;;;;;;;0.00;0.00;;;;;;;;;;4940591;29;20433;-86
2022/10/14 12:57:25;;;;;;;0.05;0.00;;;;;;;;;;4956673;29;20118;-86
2022/10/14 12:59:52;;;;;;;0.00;0.00;;;;;;;;;;4940557;29;20051;-85
2022/10/14 13:02:24;;;;;;;0.45;0.10;;;;;;;;;;4940691;29;20043;-86
2022/10/14 13:04:52;;;;;;;0.00;0.00;;;;;;;;;;4956564;28;20185;-86
2022/10/14 13:07:18;;;;;;;0.00;0.00;;;;;;;;;;4956474;29;20044;-85
2022/10/14 13:09:45;;;;;;;0.00;0.00;;;;;;;;;;4956479;29;20066;-86
2022/10/14 13:12:31;;;;;;;0.00;0.00;;;;;;;;;;4940227;29;20046;-86
2022/10/14 13:14:58;;;;;;;3.88;0.60;;;;;;;;;;4956256;28;20039;-85
2022/10/14 13:17:29;;;;;;;0.00;0.00;;;;;;;;;;4956207;29;20094;-85
2022/10/14 13:19:55;;;;;;;0.00;0.00;;;;;;;;;;4956500;29;20118;-85
2022/10/14 13:22:27;;;;;;;0.00;0.00;;;;;;;;;;4956069;29;20062;-85
2022/10/14 13:25:01;;;;;;;0.08;0.08;;;;;;;;;;4940169;29;20062;-85
2022/10/14 13:27:42;;;;;;;0.00;0.00;;;;;;;;;;4939505;29;20201;-87
2022/10/14 13:30:20;;;;;;;0.00;0.00;;;;;;;;;;4939876;29;20043;-89
2022/10/14 13:32:51;;;;;;;0.00;0.00;;;;;;;;;;4956827;29;20035;-88
2022/10/14 13:35:17;;;;;;;0.00;0.00;;;;;;;;;;4956661;28;20050;-90
2022/10/14 13:37:55;;;;;;;0.00;0.00;;;;;;;;;;4957243;29;20039;-89
2022/10/14 13:40:21;;;;;;;0.00;0.00;;;;;;;;;;4956563;29;20053;-89
2022/10/14 13:42:52;;;;;;;0.00;0.00;;;;;;;;;;4956746;29;20170;-87
2022/10/14 13:45:20;;;;;;;0.30;0.10;;;;;;;;;;4956381;28;20043;-88
2022/10/14 13:47:48;;;;;;;0.00;0.00;;;;;;;;;;4939986;29;20484;-86
2022/10/14 13:50:16;;;;;;;0.00;0.00;;;;;;;;;;4940439;29;20098;-89
2022/10/14 13:52:45;;;;;;;0.00;0.00;;;;;;;;;;4940074;29;20102;-89
2022/10/14 13:55:16;;;;;;;0.28;0.22;;;;;;;;;;4940325;29;20045;-88
2022/10/14 13:57:42;;;;;;;0.10;0.03;;;;;;;;;;4955952;29;20122;-89
2022/10/14 14:00:26;;;;;;;0.00;0.00;;;;;;;;;;4956552;29;20098;-90
2022/10/14 14:02:52;;;;;;;0.10;0.00;;;;;;;;;;4955912;29;20119;-87
2022/10/14 14:05:19;;;;;;;0.28;0.10;;;;;;;;;;4955733;28;20138;-88
2022/10/14 14:07:45;;;;;;;0.00;0.00;;;;;;;;;;4956230;29;20114;-87
2022/10/14 14:10:16;;;;;;;0.08;0.00;;;;;;;;;;4955763;29;20046;-88
2022/10/14 14:12:43;;;;;;;0.00;0.00;;;;;;;;;;4956294;29;20125;-88
2022/10/14 14:15:17;;;;;;;0.00;0.00;;;;;;;;;;4955861;28;20039;-89
2022/10/14 14:17:43;;;;;;;0.00;0.00;;;;;;;;;;4955832;29;20130;-87
2022/10/14 14:20:10;;;;;;;0.00;0.00;;;;;;;;;;4940357;29;20082;-88
2022/10/14 14:22:40;;;;;;;0.00;0.00;;;;;;;;;;4955230;29;20502;-89
2022/10/14 14:25:19;;;;;;;0.00;0.00;;;;;;;;;;4955714;28;20047;-89
2022/10/14 14:27:52;;;;;;;0.00;0.00;;;;;;;;;;4955923;29;20495;-88
2022/10/14 14:30:28;;;;;;;0.00;0.00;;;;;;;;;;4956336;29;20054;-90
2022/10/14 14:32:55;;;;;;;0.52;0.10;;;;;;;;;;4956541;28;20043;-89
2022/10/14 14:35:21;;;;;;;0.00;0.00;;;;;;;;;;4958858;28;20132;-89
2022/10/14 14:37:48;;;;;;;0.13;0.10;;;;;;;;;;4958582;28;20050;-87
2022/10/14 14:40:24;;;;;;;0.00;0.00;;;;;;;;;;4957988;28;20047;-89
2022/10/14 14:42:55;;;;;;;0.00;0.00;;;;;;;;;;4958290;28;20051;-87
2022/10/14 14:45:24;;;;;;;0.00;0.00;;;;;;;;;;4974200;28;20031;-87
2022/10/14 14:47:51;;;;;;;0.00;0.00;;;;;;;;;;4973781;28;20520;-88
2022/10/14 14:50:19;;;;;;;0.00;0.00;;;;;;;;;;4974696;28;20467;-88
2022/10/14 14:52:47;;;;;;;0.00;0.00;;;;;;;;;;4958308;28;20042;-88
2022/10/14 14:55:32;;;;;;;0.00;0.00;;;;;;;;;;4974395;28;20043;-89
2022/10/14 14:57:59;;;;;;;0.00;0.00;;;;;;;;;;4974063;28;20070;-88
2022/10/14 15:00:25;;;;;;;0.00;0.00;;;;;;;;;;4974268;28;20375;-88
2022/10/14 15:02:55;;;;;;;0.00;0.00;;;;;;;;;;4973895;28;20047;-88
2022/10/14 15:05:21;;;;;;;0.05;0.03;;;;;;;;;;4974037;28;20043;-89
2022/10/14 15:07:48;;;;;;;0.10;0.00;;;;;;;;;;4973874;28;20043;-87
2022/10/14 15:10:23;;;;;;;0.00;0.00;;;;;;;;;;4973979;28;20042;-86
2022/10/14 15:12:53;;;;;;;0.00;0.00;;;;;;;;;;4973619;28;20093;-88
2022/10/14 15:15:29;;;;;;;0.00;0.00;;;;;;;;;;4974948;28;20047;-89
2022/10/14 15:18:14;;;;;;;0.00;0.00;;;;;;;;;;4956059;28;20439;-88
2022/10/14 15:20:41;;;;;;;0.00;0.00;;;;;;;;;;4973536;28;20410;-88
2022/10/14 15:23:25;;;;;;;0.00;0.00;;;;;;;;;;4970629;28;20082;-87
2022/10/14 15:25:57;;;;;;;0.00;0.00;;;;;;;;;;4954157;28;20039;-87
2022/10/14 15:28:30;;;;;;;0.00;0.00;;;;;;;;;;4966528;28;20038;-88
2022/10/14 15:30:57;;;;;;;0.00;0.00;;;;;;;;;;4973383;28;20042;-88
2022/10/14 15:33:26;;;;;;;0.00;0.00;;;;;;;;;;4965791;28;20050;-86
2022/10/14 15:35:57;;;;;;;0.00;0.00;;;;;;;;;;4956669;28;20034;-87
2022/10/14 15:38:24;;;;;;;0.00;0.00;;;;;;;;;;4973924;28;20042;-88
2022/10/14 15:40:50;;;;;;;0.00;0.00;;;;;;;;;;4973197;28;20042;-86
2022/10/14 15:43:26;;;;;;;0.00;0.00;;;;;;;;;;4972688;28;20081;-86
2022/10/14 15:48:49;;;;;;;0.00;0.00;;;;;;;;;;4972953;28;20054;-89
2022/10/14 15:51:16;;;;;;;0.00;0.00;;;;;;;;;;4973711;28;20051;-89
2022/10/14 15:53:42;;;;;;;0.00;0.00;;;;;;;;;;4957752;28;20114;-90
2022/10/14 15:56:11;;;;;;;0.00;0.00;;;;;;;;;;4973678;28;20074;-92
2022/10/14 15:58:37;;;;;;;0.10;0.08;;;;;;;;;;4973520;28;20402;-89
2022/10/14 16:01:04;;;;;;;0.00;0.00;;;;;;;;;;4973951;28;20402;-89
2022/10/14 16:03:33;;;;;;;0.00;0.00;;;;;;;;;;4957266;28;20057;-89
2022/10/14 16:05:59;;;;;;;0.00;0.00;;;;;;;;;;4973504;28;20475;-89
2022/10/14 16:08:26;;;;;;;0.00;0.00;;;;;;;;;;4973524;28;20039;-90
2022/10/14 16:10:53;;;;;;;0.00;0.00;;;;;;;;;;4973800;28;20074;-90
2022/10/14 16:13:19;;;;;;;0.00;0.00;;;;;;;;;;4957886;28;20407;-89
2022/10/14 16:15:45;;;;;;;0.00;0.00;;;;;;;;;;4974160;28;20039;-91
2022/10/14 16:18:11;;;;;;;0.00;0.00;;;;;;;;;;4957921;28;20100;-91